createdAt,value
2022-10-09T00:02:37.384Z,8.55
2022-10-09T00:07:40.730Z,8.52
2022-10-09T00:12:43.926Z,8.44
2022-10-09T00:17:47.049Z,8.36
2022-10-09T00:22:50.664Z,8.25
2022-10-09T00:27:57.823Z,8.15
2022-10-09T00:33:03.589Z,8.07
2022-10-09T00:38:08.011Z,8.02
2022-10-09T00:43:19.852Z,8.03
2022-10-09T00:48:23.250Z,7.92
2022-10-09T00:53:29.266Z,7.80
2022-10-09T00:58:34.727Z,7.67
2022-10-09T01:03:42.445Z,7.56
2022-10-09T01:08:52.249Z,7.43
2022-10-09T01:14:08.514Z,7.33
2022-10-09T01:19:32.620Z,7.23
2022-10-09T01:24:42.302Z,7.20
2022-10-09T01:29:49.040Z,7.13
2022-10-09T01:34:55.671Z,7.06
2022-10-09T01:39:58.979Z,7.03
2022-10-09T01:45:02.271Z,7.02
2022-10-09T01:50:20.407Z,6.91
2022-10-09T01:55:38.594Z,6.79
2022-10-09T02:01:03.239Z,6.69
2022-10-09T02:06:08.382Z,6.59
2022-10-09T02:11:15.194Z,6.48
2022-10-09T02:16:28.267Z,6.37
2022-10-09T02:21:54.587Z,6.32
2022-10-09T02:26:58.648Z,6.29
2022-10-09T02:32:01.794Z,6.22
2022-10-09T02:37:05.937Z,6.15
2022-10-09T02:42:09.674Z,6.05
2022-10-09T02:47:12.886Z,5.94
2022-10-09T02:52:15.984Z,5.88
2022-10-09T02:57:19.178Z,5.82
2022-10-09T03:02:22.453Z,5.77
2022-10-09T03:07:25.715Z,5.76
2022-10-09T03:12:28.946Z,5.78
2022-10-09T03:17:32.264Z,5.75
2022-10-09T03:22:35.331Z,5.73
2022-10-09T03:27:38.535Z,5.70
2022-10-09T03:32:41.571Z,5.69
2022-10-09T03:37:44.762Z,5.68
2022-10-09T03:42:48.098Z,5.54
2022-10-09T03:47:51.498Z,5.55
2022-10-09T03:52:54.554Z,5.57
2022-10-09T03:57:58.398Z,5.57
2022-10-09T04:03:01.571Z,5.49
2022-10-09T04:08:04.762Z,5.44
2022-10-09T04:13:08.295Z,5.37
2022-10-09T04:18:12.110Z,5.30
2022-10-09T04:23:19.255Z,5.24
2022-10-09T04:28:23.927Z,5.23
2022-10-09T04:33:31.234Z,5.20
2022-10-09T04:38:35.166Z,5.14
2022-10-09T04:43:38.847Z,5.05
2022-10-09T04:48:44.849Z,4.89
2022-10-09T04:53:49.038Z,4.92
2022-10-09T04:58:52.346Z,4.98
2022-10-09T05:03:55.982Z,4.98
2022-10-09T05:09:04.017Z,5.01
2022-10-09T05:14:10.213Z,5.00
2022-10-09T05:19:15.398Z,5.06
2022-10-09T05:24:18.680Z,5.13
2022-10-09T05:29:21.760Z,5.20
2022-10-09T05:34:26.149Z,5.24
2022-10-09T05:39:29.448Z,5.26
2022-10-09T05:44:32.573Z,5.29
2022-10-09T05:49:35.753Z,5.35
2022-10-09T05:54:38.891Z,5.42
2022-10-09T05:59:44.872Z,5.52
2022-10-09T06:04:59.925Z,5.65
2022-10-09T06:10:16.334Z,5.82
2022-10-09T06:15:19.584Z,5.99
2022-10-09T06:20:27.877Z,6.19
2022-10-09T06:25:32.112Z,6.35
2022-10-09T06:30:46.696Z,6.57
2022-10-09T06:35:57.799Z,6.79
2022-10-09T06:41:35.705Z,7.03
2022-10-09T06:47:01.723Z,7.23
2022-10-09T06:52:14.172Z,7.42
2022-10-09T06:57:26.214Z,7.60
2022-10-09T07:02:45.533Z,7.80
2022-10-09T07:08:16.896Z,8.01
2022-10-09T07:13:34.401Z,8.20
2022-10-09T07:18:58.613Z,8.42
2022-10-09T07:24:18.719Z,8.62
2022-10-09T07:29:42.206Z,8.81
2022-10-09T07:34:45.455Z,8.94
2022-10-09T07:40:00.554Z,9.17
2022-10-09T07:45:04.365Z,9.35
2022-10-09T07:50:20.263Z,9.65
2022-10-09T07:55:29.082Z,9.89
2022-10-09T08:00:32.591Z,10.07
2022-10-09T08:05:38.736Z,10.12
2022-10-09T08:10:58.735Z,10.20
2022-10-09T08:16:32.473Z,10.37
2022-10-09T08:21:45.380Z,10.31
2022-10-09T08:27:04.214Z,10.48
2022-10-09T08:32:17.383Z,10.65
2022-10-09T08:37:23.847Z,10.82
2022-10-09T08:42:35.228Z,10.97
2022-10-09T08:48:14.639Z,11.05
2022-10-09T08:53:49.739Z,11.16
2022-10-09T08:59:04.841Z,11.33
2022-10-09T09:04:41.636Z,11.48
2022-10-09T09:10:07.050Z,11.72
2022-10-09T09:15:28.884Z,11.93
2022-10-09T09:20:55.191Z,12.04
2022-10-09T09:26:04.358Z,12.21
2022-10-09T09:31:17.307Z,12.37
2022-10-09T09:36:40.932Z,12.52
2022-10-09T09:41:44.484Z,12.68
2022-10-09T09:47:05.706Z,12.75
2022-10-09T09:52:10.269Z,12.91
2022-10-09T09:57:18.197Z,13.06
2022-10-09T10:02:28.203Z,13.22
2022-10-09T10:07:39.362Z,13.26
2022-10-09T10:12:57.000Z,13.31
2022-10-09T10:18:07.107Z,13.33
2022-10-09T10:23:35.417Z,13.40
2022-10-09T10:29:14.467Z,13.45
2022-10-09T10:34:32.175Z,13.78
2022-10-09T10:39:55.166Z,13.97
2022-10-09T10:45:19.819Z,13.99
2022-10-09T10:50:27.967Z,14.22
2022-10-09T10:55:41.371Z,14.37
2022-10-09T11:00:55.210Z,14.63
2022-10-09T11:06:03.072Z,14.80
2022-10-09T11:11:14.367Z,14.80
2022-10-09T11:16:20.713Z,14.83
2022-10-09T11:21:46.933Z,15.23
2022-10-09T11:27:21.993Z,15.46
2022-10-09T11:37:44.038Z,16.01
2022-10-09T11:42:55.392Z,15.58
2022-10-09T11:48:20.843Z,15.30
2022-10-09T11:53:32.570Z,15.40
2022-10-09T11:59:01.550Z,15.48
2022-10-09T12:04:20.815Z,15.53
2022-10-09T12:09:36.854Z,15.03
2022-10-09T12:15:01.695Z,14.63
2022-10-09T12:20:08.828Z,14.61
2022-10-09T12:25:27.168Z,14.87
2022-10-09T12:30:37.553Z,14.86
2022-10-09T12:35:43.724Z,14.95
2022-10-09T12:40:48.289Z,14.98
2022-10-09T12:45:53.283Z,15.17
2022-10-09T12:50:57.164Z,15.18
2022-10-09T12:56:03.586Z,15.23
2022-10-09T13:01:13.755Z,15.37
2022-10-09T13:06:22.818Z,15.40
2022-10-09T13:11:41.692Z,15.50
2022-10-09T13:16:50.336Z,15.66
2022-10-09T13:22:22.356Z,15.80
2022-10-09T13:27:30.416Z,15.85
2022-10-09T13:32:34.267Z,15.75
2022-10-09T13:37:40.228Z,15.71
2022-10-09T13:42:50.652Z,15.71
2022-10-09T13:47:56.421Z,15.50
2022-10-09T13:53:02.740Z,15.39
2022-10-09T13:58:06.549Z,15.28
2022-10-09T14:03:11.870Z,15.22
2022-10-09T14:08:17.744Z,15.35
2022-10-09T14:13:22.647Z,15.38
2022-10-09T14:18:26.421Z,15.40
2022-10-09T14:23:29.813Z,15.29
2022-10-09T14:28:34.208Z,15.30
2022-10-09T14:33:37.678Z,15.32
2022-10-09T14:38:43.419Z,15.22
2022-10-09T14:43:59.866Z,15.18
2022-10-09T14:49:27.881Z,15.03
2022-10-09T14:54:58.730Z,14.83
2022-10-09T15:00:02.991Z,14.68
2022-10-09T15:05:16.492Z,14.60
2022-10-09T15:10:29.337Z,14.53
2022-10-09T15:15:42.250Z,14.39
2022-10-09T15:21:04.943Z,14.23
2022-10-09T15:26:17.256Z,14.03
2022-10-09T15:31:39.572Z,13.84
2022-10-09T15:36:55.550Z,13.65
2022-10-09T15:42:10.378Z,13.41
2022-10-09T15:47:46.443Z,13.16
2022-10-09T15:52:56.106Z,12.90
2022-10-09T15:57:59.368Z,12.67
2022-10-09T16:03:07.088Z,12.34
2022-10-09T16:08:16.719Z,11.98
2022-10-09T16:13:32.304Z,11.71
2022-10-09T16:18:36.716Z,11.39
2022-10-09T16:23:41.714Z,11.17
2022-10-09T16:28:46.571Z,10.99
2022-10-09T16:33:50.604Z,10.70
2022-10-09T16:38:54.015Z,10.37
2022-10-09T16:44:00.454Z,10.05
2022-10-09T16:49:04.234Z,9.77
2022-10-09T16:54:07.821Z,9.51
2022-10-09T16:59:15.465Z,9.28
2022-10-09T17:04:21.505Z,9.08
2022-10-09T17:09:24.781Z,8.89
2022-10-09T17:14:28.009Z,8.79
2022-10-09T17:19:32.630Z,8.71
2022-10-09T17:24:38.480Z,8.60
2022-10-09T17:29:51.585Z,8.48
2022-10-09T17:34:54.728Z,8.43
2022-10-09T17:39:57.920Z,8.44
2022-10-09T17:45:02.977Z,8.36
2022-10-09T17:50:07.080Z,8.33
2022-10-09T17:55:14.503Z,8.31
2022-10-09T18:00:21.640Z,8.26
2022-10-09T18:05:27.627Z,8.15
2022-10-09T18:10:30.856Z,8.08
2022-10-09T18:15:44.433Z,8.02
2022-10-09T18:20:53.043Z,7.89
2022-10-09T18:26:01.670Z,7.72
2022-10-09T18:31:20.960Z,7.56
2022-10-09T18:36:36.545Z,7.46
2022-10-09T18:41:50.662Z,7.25
2022-10-09T18:47:07.674Z,7.10
2022-10-09T18:52:22.826Z,6.96
2022-10-09T18:57:56.952Z,6.81
2022-10-09T19:03:06.298Z,6.71
2022-10-09T19:08:19.240Z,6.66
2022-10-09T19:13:48.645Z,6.58
2022-10-09T19:19:27.722Z,6.54
2022-10-09T19:24:36.562Z,6.49
2022-10-09T19:29:45.007Z,6.46
2022-10-09T19:34:51.317Z,6.40
2022-10-09T19:40:12.573Z,6.39
2022-10-09T19:45:27.983Z,6.35
2022-10-09T19:50:36.223Z,6.25
2022-10-09T19:55:52.844Z,6.06
2022-10-09T20:00:58.162Z,5.91
2022-10-09T20:12:24.128Z,5.84
2022-10-09T20:17:37.892Z,5.78
2022-10-09T20:22:41.916Z,5.80
2022-10-09T20:27:50.833Z,5.83
2022-10-09T20:32:59.623Z,5.78
2022-10-09T20:38:23.341Z,5.75
2022-10-09T20:43:45.413Z,5.73
2022-10-09T20:48:49.218Z,5.74
2022-10-09T20:53:57.995Z,5.72
2022-10-09T20:59:18.304Z,5.70
2022-10-09T21:04:26.453Z,5.68
2022-10-09T21:09:42.938Z,5.62
2022-10-09T21:20:20.221Z,5.47
2022-10-09T21:25:43.300Z,5.36
2022-10-09T21:30:51.527Z,5.32
2022-10-09T21:36:08.936Z,5.31
2022-10-09T21:41:24.966Z,5.31
2022-10-09T21:46:35.542Z,5.31
2022-10-09T21:52:00.099Z,5.31
2022-10-09T21:57:28.402Z,5.33
2022-10-09T22:02:42.978Z,5.37
2022-10-09T22:08:40.958Z,5.35
2022-10-09T22:14:06.115Z,5.21
2022-10-09T22:19:25.676Z,5.14
2022-10-09T22:24:36.243Z,5.07
2022-10-09T22:30:06.455Z,4.98
2022-10-09T22:35:24.741Z,4.96
2022-10-09T22:40:34.671Z,4.95
2022-10-09T22:45:46.897Z,4.95
2022-10-09T22:51:00.395Z,4.94
2022-10-09T22:56:36.906Z,4.89
2022-10-09T23:01:53.771Z,4.83
2022-10-09T23:07:04.570Z,4.85
2022-10-09T23:12:10.488Z,4.86
2022-10-09T23:17:20.814Z,4.86
2022-10-09T23:22:26.074Z,4.93
2022-10-09T23:27:32.586Z,4.93
2022-10-09T23:32:40.737Z,4.88
2022-10-09T23:38:09.845Z,4.88
2022-10-09T23:43:27.818Z,4.85
2022-10-09T23:48:37.578Z,4.84
2022-10-09T23:53:47.437Z,4.87
2022-10-09T23:58:55.949Z,4.86
